sensor_id;sensor_type;location;lat;lon;timestamp;pressure;altitude;pressure_sealevel;temperature;humidity
51986;BME280;38002;53.296;6.600;2023-03-04T00:01:34;102815.34;;;5.75;80.82
51986;BME280;38002;53.296;6.600;2023-03-04T00:06:34;102814.56;;;5.73;80.60
51986;BME280;38002;53.296;6.600;2023-03-04T00:11:34;102819.06;;;5.73;80.29
51986;BME280;38002;53.296;6.600;2023-03-04T00:16:35;102812.69;;;5.74;80.76
51986;BME280;38002;53.296;6.600;2023-03-04T00:21:35;102816.28;;;5.74;80.50
51986;BME280;38002;53.296;6.600;2023-03-04T00:26:36;102801.06;;;5.73;80.50
51986;BME280;38002;53.296;6.600;2023-03-04T00:31:36;102793.81;;;5.74;80.82
51986;BME280;38002;53.296;6.600;2023-03-04T00:36:37;102785.72;;;5.74;80.80
51986;BME280;38002;53.296;6.600;2023-03-04T00:41:37;102785.72;;;5.74;81.17
51986;BME280;38002;53.296;6.600;2023-03-04T00:46:38;102785.72;;;5.74;80.51
51986;BME280;38002;53.296;6.600;2023-03-04T00:51:39;102778.59;;;5.73;80.34
51986;BME280;38002;53.296;6.600;2023-03-04T00:56:39;102780.31;;;5.74;80.50
51986;BME280;38002;53.296;6.600;2023-03-04T01:01:39;102769.50;;;5.74;80.43
51986;BME280;38002;53.296;6.600;2023-03-04T01:06:40;102766.81;;;5.74;80.70
51986;BME280;38002;53.296;6.600;2023-03-04T01:11:40;102780.41;;;5.72;80.87
51986;BME280;38002;53.296;6.600;2023-03-04T01:16:41;102769.00;;;5.67;80.14
51986;BME280;38002;53.296;6.600;2023-03-04T01:21:41;102772.75;;;5.65;80.18
51986;BME280;38002;53.296;6.600;2023-03-04T01:26:42;102759.25;;;5.65;80.23
51986;BME280;38002;53.296;6.600;2023-03-04T01:31:42;102763.78;;;5.64;80.61
51986;BME280;38002;53.296;6.600;2023-03-04T01:36:43;102750.28;;;5.64;80.47
51986;BME280;38002;53.296;6.600;2023-03-04T01:41:43;102750.28;;;5.64;80.78
51986;BME280;38002;53.296;6.600;2023-03-04T01:46:48;102732.53;;;5.60;80.96
51986;BME280;38002;53.296;6.600;2023-03-04T01:51:52;102734.34;;;5.60;81.40
51986;BME280;38002;53.296;6.600;2023-03-04T01:56:54;102723.56;;;5.60;81.44
51986;BME280;38002;53.296;6.600;2023-03-04T02:01:58;102730.84;;;5.58;81.39
51986;BME280;38002;53.296;6.600;2023-03-04T02:07:01;102714.66;;;5.58;81.49
51986;BME280;38002;53.296;6.600;2023-03-04T02:12:02;102712.91;;;5.57;81.43
51986;BME280;38002;53.296;6.600;2023-03-04T02:17:04;102712.06;;;5.56;81.10
51986;BME280;38002;53.296;6.600;2023-03-04T02:22:05;102700.38;;;5.56;81.52
51986;BME280;38002;53.296;6.600;2023-03-04T02:27:06;102695.06;;;5.54;81.51
51986;BME280;38002;53.296;6.600;2023-03-04T02:32:09;102694.13;;;5.55;81.42
51986;BME280;38002;53.296;6.600;2023-03-04T02:37:10;102686.78;;;5.57;81.47
51986;BME280;38002;53.296;6.600;2023-03-04T02:42:12;102695.75;;;5.58;81.33
51986;BME280;38002;53.296;6.600;2023-03-04T02:47:14;102685.06;;;5.56;81.42
51986;BME280;38002;53.296;6.600;2023-03-04T02:52:19;102690.38;;;5.58;80.99
51986;BME280;38002;53.296;6.600;2023-03-04T02:57:21;102678.69;;;5.57;81.86
51986;BME280;38002;53.296;6.600;2023-03-04T03:02:21;102669.66;;;5.58;81.85
51986;BME280;38002;53.296;6.600;2023-03-04T03:07:22;102662.44;;;5.59;81.87
51986;BME280;38002;53.296;6.600;2023-03-04T03:12:22;102662.44;;;5.59;81.69
51986;BME280;38002;53.296;6.600;2023-03-04T03:17:23;102655.28;;;5.58;82.29
51986;BME280;38002;53.296;6.600;2023-03-04T03:22:23;102646.25;;;5.59;82.23
51986;BME280;38002;53.296;6.600;2023-03-04T03:27:24;102649.81;;;5.59;82.09
51986;BME280;38002;53.296;6.600;2023-03-04T03:32:24;102638.16;;;5.59;81.79
51986;BME280;38002;53.296;6.600;2023-03-04T03:37:25;102638.06;;;5.60;81.98
51986;BME280;38002;53.296;6.600;2023-03-04T03:42:26;102630.06;;;5.59;82.21
51986;BME280;38002;53.296;6.600;2023-03-04T03:47:26;102628.16;;;5.61;82.29
51986;BME280;38002;53.296;6.600;2023-03-04T03:52:27;102631.69;;;5.61;82.22
51986;BME280;38002;53.296;6.600;2023-03-04T03:57:28;102627.97;;;5.64;81.81
51986;BME280;38002;53.296;6.600;2023-03-04T04:02:29;102626.22;;;5.63;82.17
51986;BME280;38002;53.296;6.600;2023-03-04T04:07:29;102635.97;;;5.65;82.37
51986;BME280;38002;53.296;6.600;2023-03-04T04:12:30;102626.03;;;5.66;82.30
51986;BME280;38002;53.296;6.600;2023-03-04T04:17:30;102629.72;;;5.65;82.43
51986;BME280;38002;53.296;6.600;2023-03-04T04:22:31;102623.25;;;5.67;81.78
51986;BME280;38002;53.296;6.600;2023-03-04T04:27:31;102627.78;;;5.67;82.60
51986;BME280;38002;53.296;6.600;2023-03-04T04:32:32;102624.13;;;5.68;82.50
51986;BME280;38002;53.296;6.600;2023-03-04T04:37:33;102627.59;;;5.70;83.25
51986;BME280;38002;53.296;6.600;2023-03-04T04:42:33;102626.75;;;5.69;83.48
51986;BME280;38002;53.296;6.600;2023-03-04T04:47:34;102615.09;;;5.69;83.52
51986;BME280;38002;53.296;6.600;2023-03-04T04:52:34;102621.44;;;5.68;83.45
51986;BME280;38002;53.296;6.600;2023-03-04T04:57:35;102615.97;;;5.69;83.46
51986;BME280;38002;53.296;6.600;2023-03-04T05:02:36;102615.09;;;5.69;84.54
51986;BME280;38002;53.296;6.600;2023-03-04T05:07:36;102613.53;;;5.65;85.29
51986;BME280;38002;53.296;6.600;2023-03-04T05:12:37;102617.19;;;5.64;85.16
51986;BME280;38002;53.296;6.600;2023-03-04T05:17:37;102613.88;;;5.59;85.13
51986;BME280;38002;53.296;6.600;2023-03-04T05:22:38;102610.38;;;5.57;84.94
51986;BME280;38002;53.296;6.600;2023-03-04T05:27:38;102610.38;;;5.57;85.00
51986;BME280;38002;53.296;6.600;2023-03-04T05:32:39;102607.50;;;5.60;85.45
51986;BME280;38002;53.296;6.600;2023-03-04T05:37:40;102607.59;;;5.58;85.27
51986;BME280;38002;53.296;6.600;2023-03-04T05:42:40;102608.47;;;5.59;85.96
51986;BME280;38002;53.296;6.600;2023-03-04T05:47:41;102606.63;;;5.59;85.58
51986;BME280;38002;53.296;6.600;2023-03-04T05:52:41;102604.88;;;5.58;85.56
51986;BME280;38002;53.296;6.600;2023-03-04T05:57:42;102603.25;;;5.56;86.42
51986;BME280;38002;53.296;6.600;2023-03-04T06:02:43;102613.94;;;5.57;86.43
51986;BME280;38002;53.296;6.600;2023-03-04T06:07:44;102609.53;;;5.56;86.35
51986;BME280;38002;53.296;6.600;2023-03-04T06:12:45;102614.91;;;5.56;85.79
51986;BME280;38002;53.296;6.600;2023-03-04T06:17:45;102616.81;;;5.54;86.35
51986;BME280;38002;53.296;6.600;2023-03-04T06:22:46;102619.59;;;5.53;86.82
51986;BME280;38002;53.296;6.600;2023-03-04T06:27:46;102617.16;;;5.48;87.30
51986;BME280;38002;53.296;6.600;2023-03-04T06:32:47;102618.03;;;5.48;86.72
51986;BME280;38002;53.296;6.600;2023-03-04T06:37:47;102612.63;;;5.48;87.09
51986;BME280;38002;53.296;6.600;2023-03-04T06:42:48;102618.75;;;5.52;87.30
51986;BME280;38002;53.296;6.600;2023-03-04T06:47:48;102621.28;;;5.55;87.87
51986;BME280;38002;53.296;6.600;2023-03-04T06:52:49;102625.59;;;5.58;87.36
51986;BME280;38002;53.296;6.600;2023-03-04T06:57:49;102636.13;;;5.62;87.84
51986;BME280;38002;53.296;6.600;2023-03-04T07:02:50;102638.16;;;5.59;87.45
51986;BME280;38002;53.296;6.600;2023-03-04T07:07:51;102633.56;;;5.61;87.95
51986;BME280;38002;53.296;6.600;2023-03-04T07:12:51;102634.31;;;5.63;87.67
51986;BME280;38002;53.296;6.600;2023-03-04T07:17:51;102633.19;;;5.67;87.75
51986;BME280;38002;53.296;6.600;2023-03-04T07:22:52;102637.63;;;5.68;88.31
51986;BME280;38002;53.296;6.600;2023-03-04T07:27:53;102633.00;;;5.70;88.32
51986;BME280;38002;53.296;6.600;2023-03-04T07:32:56;102643.66;;;5.73;88.41
51986;BME280;38002;53.296;6.600;2023-03-04T07:37:56;102640.94;;;5.73;88.18
51986;BME280;38002;53.296;6.600;2023-03-04T07:42:57;102672.53;;;5.71;88.23
51986;BME280;38002;53.296;6.600;2023-03-04T07:47:57;102665.56;;;5.67;88.48
51986;BME280;38002;53.296;6.600;2023-03-04T07:52:58;102653.91;;;5.66;87.90
51986;BME280;38002;53.296;6.600;2023-03-04T07:57:58;102655.56;;;5.69;88.05
51986;BME280;38002;53.296;6.600;2023-03-04T08:02:59;102659.16;;;5.69;88.10
51986;BME280;38002;53.296;6.600;2023-03-04T08:07:59;102656.06;;;5.75;88.48
51986;BME280;38002;53.296;6.600;2023-03-04T08:13:00;102658.44;;;5.81;88.28
51986;BME280;38002;53.296;6.600;2023-03-04T08:18:01;102668.19;;;5.84;87.89
51986;BME280;38002;53.296;6.600;2023-03-04T08:23:01;102666.19;;;5.87;88.03
51986;BME280;38002;53.296;6.600;2023-03-04T08:28:02;102672.22;;;5.92;87.58
51986;BME280;38002;53.296;6.600;2023-03-04T08:33:02;102668.38;;;5.97;87.78
51986;BME280;38002;53.296;6.600;2023-03-04T08:38:03;102669.25;;;5.97;87.38
51986;BME280;38002;53.296;6.600;2023-03-04T08:43:04;102677.97;;;6.02;87.22
51986;BME280;38002;53.296;6.600;2023-03-04T08:48:04;102675.00;;;6.07;86.69
51986;BME280;38002;53.296;6.600;2023-03-04T08:53:05;102683.78;;;6.10;85.62
51986;BME280;38002;53.296;6.600;2023-03-04T08:58:05;102679.94;;;6.14;84.80
51986;BME280;38002;53.296;6.600;2023-03-04T09:03:06;102685.16;;;6.17;85.29
51986;BME280;38002;53.296;6.600;2023-03-04T09:08:06;102692.13;;;6.21;85.01
51986;BME280;38002;53.296;6.600;2023-03-04T09:13:07;102697.25;;;6.26;85.13
51986;BME280;38002;53.296;6.600;2023-03-04T09:18:10;102691.03;;;6.25;84.96
51986;BME280;38002;53.296;6.600;2023-03-04T09:23:11;102694.28;;;6.30;84.98
51986;BME280;38002;53.296;6.600;2023-03-04T09:28:12;102693.16;;;6.34;85.22
51986;BME280;38002;53.296;6.600;2023-03-04T09:33:14;102697.59;;;6.51;85.43
51986;BME280;38002;53.296;6.600;2023-03-04T09:38:14;102692.81;;;6.70;84.79
51986;BME280;38002;53.296;6.600;2023-03-04T09:43:21;102685.72;;;6.98;83.94
51986;BME280;38002;53.296;6.600;2023-03-04T09:48:27;102691.25;;;7.10;82.78
51986;BME280;38002;53.296;6.600;2023-03-04T10:04:38;102703.00;;;6.95;83.13
51986;BME280;38002;53.296;6.600;2023-03-04T10:10:04;102705.91;;;6.92;82.82
51986;BME280;38002;53.296;6.600;2023-03-04T10:20:25;102707.13;;;6.87;82.25
51986;BME280;38002;53.296;6.600;2023-03-04T10:25:29;102697.97;;;6.89;82.06
51986;BME280;38002;53.296;6.600;2023-03-04T10:30:50;102694.41;;;6.89;80.73
51986;BME280;38002;53.296;6.600;2023-03-04T10:41:24;102703.00;;;6.95;79.89
51986;BME280;38002;53.296;6.600;2023-03-04T10:46:25;102707.66;;;6.93;80.16
51986;BME280;38002;53.296;6.600;2023-03-04T10:51:28;102702.59;;;6.87;80.20
51986;BME280;38002;53.296;6.600;2023-03-04T11:01:35;102697.97;;;6.89;80.66
51986;BME280;38002;53.296;6.600;2023-03-04T11:06:39;102701.75;;;7.01;80.27
51986;BME280;38002;53.296;6.600;2023-03-04T11:11:43;102697.06;;;7.18;78.18
51986;BME280;38002;53.296;6.600;2023-03-04T11:16:59;102697.06;;;7.33;78.52
51986;BME280;38002;53.296;6.600;2023-03-04T11:22:01;102700.66;;;7.33;79.40
51986;BME280;38002;53.296;6.600;2023-03-04T11:27:05;102713.09;;;7.21;79.67
51986;BME280;38002;53.296;6.600;2023-03-04T11:32:18;102694.16;;;7.07;79.95
51986;BME280;38002;53.296;6.600;2023-03-04T11:37:33;102691.25;;;7.10;80.24
51986;BME280;38002;53.296;6.600;2023-03-04T11:48:08;102673.84;;;7.57;76.97
51986;BME280;38002;53.296;6.600;2023-03-04T11:53:43;102664.41;;;8.17;77.55
51986;BME280;38002;53.296;6.600;2023-03-04T12:15:19;102645.81;;;8.26;76.33
51986;BME280;38002;53.296;6.600;2023-03-04T12:20:32;102654.03;;;8.24;77.13
51986;BME280;38002;53.296;6.600;2023-03-04T12:36:11;102614.06;;;8.92;76.00
51986;BME280;38002;53.296;6.600;2023-03-04T12:51:54;102617.72;;;8.27;77.46
51986;BME280;38002;53.296;6.600;2023-03-04T12:57:24;102631.09;;;8.30;76.92
51986;BME280;38002;53.296;6.600;2023-03-04T13:18:37;102606.44;;;8.97;74.80
51986;BME280;38002;53.296;6.600;2023-03-04T13:23:40;102604.94;;;8.93;74.98
51986;BME280;38002;53.296;6.600;2023-03-04T13:28:40;102603.63;;;9.11;74.83
51986;BME280;38002;53.296;6.600;2023-03-04T13:38:56;102591.81;;;9.00;72.56
51986;BME280;38002;53.296;6.600;2023-03-04T13:44:01;102587.69;;;8.94;75.04
51986;BME280;38002;53.296;6.600;2023-03-04T13:49:13;102597.44;;;8.72;73.85
51986;BME280;38002;53.296;6.600;2023-03-04T13:54:31;102600.56;;;8.40;74.20
51986;BME280;38002;53.296;6.600;2023-03-04T14:04:45;102589.13;;;7.69;75.20
51986;BME280;38002;53.296;6.600;2023-03-04T14:09:58;102596.25;;;7.43;73.83
51986;BME280;38002;53.296;6.600;2023-03-04T14:15:03;102589.78;;;7.46;74.70
51986;BME280;38002;53.296;6.600;2023-03-04T14:25:31;102596.34;;;7.83;74.20
51986;BME280;38002;53.296;6.600;2023-03-04T14:30:33;102587.88;;;7.60;74.96
51986;BME280;38002;53.296;6.600;2023-03-04T14:35:34;102583.22;;;7.36;74.66
51986;BME280;38002;53.296;6.600;2023-03-04T14:40:39;102590.28;;;7.10;75.18
51986;BME280;38002;53.296;6.600;2023-03-04T14:45:41;102586.63;;;6.97;75.94
51986;BME280;38002;53.296;6.600;2023-03-04T14:50:50;102583.06;;;6.96;75.63
51986;BME280;38002;53.296;6.600;2023-03-04T14:55:56;102587.59;;;6.96;75.00
51986;BME280;38002;53.296;6.600;2023-03-04T15:01:13;102572.06;;;6.85;75.19
51986;BME280;38002;53.296;6.600;2023-03-04T15:06:20;102574.09;;;6.81;75.95
51986;BME280;38002;53.296;6.600;2023-03-04T15:11:43;102564.00;;;6.69;75.36
51986;BME280;38002;53.296;6.600;2023-03-04T15:16:55;102569.78;;;6.49;73.95
51986;BME280;38002;53.296;6.600;2023-03-04T15:22:04;102565.63;;;6.44;75.34
51986;BME280;38002;53.296;6.600;2023-03-04T15:27:09;102559.47;;;6.42;75.20
51986;BME280;38002;53.296;6.600;2023-03-04T15:32:11;102560.06;;;6.47;75.28
51986;BME280;38002;53.296;6.600;2023-03-04T15:37:20;102564.00;;;6.41;75.69
51986;BME280;38002;53.296;6.600;2023-03-04T15:42:21;102562.03;;;6.29;76.60
51986;BME280;38002;53.296;6.600;2023-03-04T15:47:22;102542.88;;;6.18;76.06
51986;BME280;38002;53.296;6.600;2023-03-04T15:52:22;102553.41;;;6.08;76.04
51986;BME280;38002;53.296;6.600;2023-03-04T15:57:26;102548.16;;;6.05;76.25
51986;BME280;38002;53.296;6.600;2023-03-04T16:02:26;102559.16;;;6.02;76.05
51986;BME280;38002;53.296;6.600;2023-03-04T16:07:28;102555.94;;;5.96;76.43
51986;BME280;38002;53.296;6.600;2023-03-04T16:12:29;102549.25;;;5.87;76.45
51986;BME280;38002;53.296;6.600;2023-03-04T16:17:29;102557.50;;;5.84;76.75
51986;BME280;38002;53.296;6.600;2023-03-04T16:22:30;102560.47;;;5.79;75.98
51986;BME280;38002;53.296;6.600;2023-03-04T16:27:31;102566.31;;;5.72;76.24
51986;BME280;38002;53.296;6.600;2023-03-04T16:32:32;102562.13;;;5.66;76.58
51986;BME280;38002;53.296;6.600;2023-03-04T16:37:32;102559.91;;;5.59;77.11
51986;BME280;38002;53.296;6.600;2023-03-04T16:42:33;102551.56;;;5.47;77.28
51986;BME280;38002;53.296;6.600;2023-03-04T16:47:34;102545.44;;;5.44;77.17
51986;BME280;38002;53.296;6.600;2023-03-04T16:52:35;102550.16;;;5.40;77.75
51986;BME280;38002;53.296;6.600;2023-03-04T16:57:35;102544.00;;;5.38;77.82
51986;BME280;38002;53.296;6.600;2023-03-04T17:02:36;102539.56;;;5.37;78.14
51986;BME280;38002;53.296;6.600;2023-03-04T17:07:37;102540.75;;;5.32;77.73
51986;BME280;38002;53.296;6.600;2023-03-04T17:12:37;102543.72;;;5.27;77.87
51986;BME280;38002;53.296;6.600;2023-03-04T17:17:39;102527.78;;;5.23;77.83
51986;BME280;38002;53.296;6.600;2023-03-04T17:22:40;102524.50;;;5.18;77.95
51986;BME280;38002;53.296;6.600;2023-03-04T17:27:41;102527.47;;;5.13;78.17
51986;BME280;38002;53.296;6.600;2023-03-04T17:32:42;102527.78;;;5.07;78.20
51986;BME280;38002;53.296;6.600;2023-03-04T17:37:42;102527.00;;;5.05;78.18
51986;BME280;38002;53.296;6.600;2023-03-04T17:42:43;102533.44;;;5.02;77.89
51986;BME280;38002;53.296;6.600;2023-03-04T17:47:43;102539.91;;;5.00;78.48
51986;BME280;38002;53.296;6.600;2023-03-04T17:52:44;102539.78;;;5.01;78.29
51986;BME280;38002;53.296;6.600;2023-03-04T17:57:44;102539.03;;;4.99;78.38
51986;BME280;38002;53.296;6.600;2023-03-04T18:02:45;102550.06;;;4.95;78.77
51986;BME280;38002;53.296;6.600;2023-03-04T18:07:45;102543.16;;;4.89;79.31
51986;BME280;38002;53.296;6.600;2023-03-04T18:12:46;102536.28;;;4.84;79.30
51986;BME280;38002;53.296;6.600;2023-03-04T18:17:46;102542.78;;;4.80;79.56
51986;BME280;38002;53.296;6.600;2023-03-04T18:22:47;102543.78;;;4.79;79.60
51986;BME280;38002;53.296;6.600;2023-03-04T18:27:48;102537.59;;;4.77;79.75
51986;BME280;38002;53.296;6.600;2023-03-04T18:32:48;102535.69;;;4.79;79.25
51986;BME280;38002;53.296;6.600;2023-03-04T18:37:49;102521.59;;;4.74;79.57
51986;BME280;38002;53.296;6.600;2023-03-04T18:42:49;102527.50;;;4.80;79.26
51986;BME280;38002;53.296;6.600;2023-03-04T18:47:50;102522.97;;;4.81;79.57
51986;BME280;38002;53.296;6.600;2023-03-04T18:52:52;102524.03;;;4.78;79.67
51986;BME280;38002;53.296;6.600;2023-03-04T18:57:54;102524.28;;;4.74;79.49
51986;BME280;38002;53.296;6.600;2023-03-04T19:03:04;102524.91;;;4.79;79.35
51986;BME280;38002;53.296;6.600;2023-03-04T19:08:06;102522.22;;;4.79;78.73
51986;BME280;38002;53.296;6.600;2023-03-04T19:13:07;102516.81;;;4.79;79.11
51986;BME280;38002;53.296;6.600;2023-03-04T19:18:07;102516.03;;;4.77;79.36
51986;BME280;38002;53.296;6.600;2023-03-04T19:23:08;102514.38;;;4.74;79.07
51986;BME280;38002;53.296;6.600;2023-03-04T19:28:09;102514.44;;;4.73;79.48
51986;BME280;38002;53.296;6.600;2023-03-04T19:33:10;102518.19;;;4.70;79.60
51986;BME280;38002;53.296;6.600;2023-03-04T19:38:11;102516.69;;;4.65;79.60
51986;BME280;38002;53.296;6.600;2023-03-04T19:43:13;102508.00;;;4.60;79.36
51986;BME280;38002;53.296;6.600;2023-03-04T19:48:13;102503.56;;;4.58;79.88
51986;BME280;38002;53.296;6.600;2023-03-04T19:53:15;102498.41;;;4.54;79.81
51986;BME280;38002;53.296;6.600;2023-03-04T19:58:18;102503.97;;;4.51;80.49
51986;BME280;38002;53.296;6.600;2023-03-04T20:03:19;102500.59;;;4.47;80.43
51986;BME280;38002;53.296;6.600;2023-03-04T20:08:19;102493.69;;;4.42;80.32
51986;BME280;38002;53.296;6.600;2023-03-04T20:13:20;102502.09;;;4.36;80.36
51986;BME280;38002;53.296;6.600;2023-03-04T20:18:21;102496.00;;;4.32;81.52
51986;BME280;38002;53.296;6.600;2023-03-04T20:23:21;102493.41;;;4.31;81.42
51986;BME280;38002;53.296;6.600;2023-03-04T20:28:23;102512.34;;;4.29;81.45
51986;BME280;38002;53.296;6.600;2023-03-04T20:33:23;102494.91;;;4.19;82.54
51986;BME280;38002;53.296;6.600;2023-03-04T20:38:24;102492.56;;;4.13;82.26
51986;BME280;38002;53.296;6.600;2023-03-04T20:43:25;102497.16;;;4.11;82.76
51986;BME280;38002;53.296;6.600;2023-03-04T20:48:27;102480.28;;;4.07;83.30
51986;BME280;38002;53.296;6.600;2023-03-04T20:53:28;102482.09;;;4.07;83.25
51986;BME280;38002;53.296;6.600;2023-03-04T20:58:28;102480.34;;;4.06;83.26
51986;BME280;38002;53.296;6.600;2023-03-04T21:03:29;102476.81;;;4.05;83.41
51986;BME280;38002;53.296;6.600;2023-03-04T21:08:29;102465.09;;;4.06;83.19
51986;BME280;38002;53.296;6.600;2023-03-04T21:13:30;102473.09;;;4.08;83.35
51986;BME280;38002;53.296;6.600;2023-03-04T21:18:31;102467.72;;;4.08;83.63
51986;BME280;38002;53.296;6.600;2023-03-04T21:23:32;102466.84;;;4.07;83.22
51986;BME280;38002;53.296;6.600;2023-03-04T21:28:33;102466.06;;;4.05;83.36
51986;BME280;38002;53.296;6.600;2023-03-04T21:33:34;102456.47;;;4.00;84.10
51986;BME280;38002;53.296;6.600;2023-03-04T21:38:36;102453.16;;;3.95;83.89
51986;BME280;38002;53.296;6.600;2023-03-04T21:43:36;102437.25;;;3.90;83.71
51986;BME280;38002;53.296;6.600;2023-03-04T21:48:36;102440.13;;;3.87;83.25
51986;BME280;38002;53.296;6.600;2023-03-04T21:53:37;102429.59;;;3.83;82.82
51986;BME280;38002;53.296;6.600;2023-03-04T21:58:38;102429.59;;;3.83;83.72
51986;BME280;38002;53.296;6.600;2023-03-04T22:03:41;102421.66;;;3.80;83.80
51986;BME280;38002;53.296;6.600;2023-03-04T22:08:42;102408.38;;;3.77;83.07
51986;BME280;38002;53.296;6.600;2023-03-04T22:13:42;102414.88;;;3.73;83.52
51986;BME280;38002;53.296;6.600;2023-03-04T22:18:43;102410.53;;;3.70;83.15
51986;BME280;38002;53.296;6.600;2023-03-04T22:23:43;102402.59;;;3.67;83.50
51986;BME280;38002;53.296;6.600;2023-03-04T22:28:44;102404.59;;;3.63;84.25
51986;BME280;38002;53.296;6.600;2023-03-04T22:33:45;102400.16;;;3.62;84.11
51986;BME280;38002;53.296;6.600;2023-03-04T22:38:46;102398.44;;;3.61;84.61
51986;BME280;38002;53.296;6.600;2023-03-04T22:43:47;102391.31;;;3.60;83.92
51986;BME280;38002;53.296;6.600;2023-03-04T22:48:52;102410.13;;;3.60;84.21
51986;BME280;38002;53.296;6.600;2023-03-04T22:53:53;102410.38;;;3.56;84.56
51986;BME280;38002;53.296;6.600;2023-03-04T22:58:54;102387.97;;;3.55;83.88
51986;BME280;38002;53.296;6.600;2023-03-04T23:03:55;102378.09;;;3.56;83.76
51986;BME280;38002;53.296;6.600;2023-03-04T23:08:56;102372.72;;;3.56;84.42
51986;BME280;38002;53.296;6.600;2023-03-04T23:13:57;102372.72;;;3.56;83.87
51986;BME280;38002;53.296;6.600;2023-03-04T23:19:02;102364.72;;;3.54;84.18
51986;BME280;38002;53.296;6.600;2023-03-04T23:24:04;102368.38;;;3.53;85.98
51986;BME280;38002;53.296;6.600;2023-03-04T23:29:07;102355.00;;;3.52;85.05
51986;BME280;38002;53.296;6.600;2023-03-04T23:34:07;102365.06;;;3.48;84.64
51986;BME280;38002;53.296;6.600;2023-03-04T23:39:11;102350.03;;;3.44;84.58
51986;BME280;38002;53.296;6.600;2023-03-04T23:44:12;102347.34;;;3.44;84.26
51986;BME280;38002;53.296;6.600;2023-03-04T23:49:13;102351.75;;;3.45;84.35
51986;BME280;38002;53.296;6.600;2023-03-04T23:54:14;102345.53;;;3.45;84.77
51986;BME280;38002;53.296;6.600;2023-03-04T23:59:14;102341.09;;;3.44;85.02
